Kane, Illinois
Current Conditions -  °F | °C
As of 12:54 AM on Thursday 27 Nov 2014 (Local Time) from KSET Reporting Station
Overcast Overcast  
Wind Chill: 23°   Ceiling: 1100
Heat Index: 31°   Visibility: 7mi
Dew Point: 27°   Wind: 9mph
Humidity: 85%   Direction: 350°N
Pressure: 30.28"   Gusts: NA
Location:  39.19°N, 90.35°W
Report Text: KSET 270654Z AUTO 35008KT 7SM OVC011 M01/M03 A3028 RMK AO2 SLP256 T10061028
Loading
Personal Weather Stations






























Interactive Weather Map New forecast layout! Learn more

10-Day Weather Forecast

Advertisements
Track Severe Weather on mobile